createdAt,value
2022-11-04T00:01:47.174Z,8.40
2022-11-04T00:04:15.914Z,8.55
2022-11-04T00:06:43.003Z,8.40
2022-11-04T00:09:13.488Z,8.43
2022-11-04T00:11:58.826Z,8.30
2022-11-04T00:14:26.072Z,8.15
2022-11-04T00:17:11.544Z,7.85
2022-11-04T00:19:57.110Z,8.68
2022-11-04T00:22:43.044Z,8.15
2022-11-04T00:25:29.173Z,8.68
2022-11-04T00:28:25.506Z,8.20
2022-11-04T00:30:57.674Z,8.95
2022-11-04T00:33:27.783Z,9.20
2022-11-04T00:35:57.470Z,9.00
2022-11-04T00:38:25.813Z,9.15
2022-11-04T00:40:52.946Z,8.80
2022-11-04T00:43:19.846Z,9.13
2022-11-04T00:45:46.624Z,9.43
2022-11-04T00:48:14.086Z,9.55
2022-11-04T00:50:41.151Z,9.35
2022-11-04T00:53:08.238Z,10.02
2022-11-04T00:55:35.405Z,9.45
2022-11-04T00:58:02.411Z,9.38
2022-11-04T01:00:30.095Z,9.45
2022-11-04T01:02:58.197Z,9.13
2022-11-04T01:05:25.048Z,7.47
2022-11-04T01:07:51.832Z,6.22
2022-11-04T01:10:19.030Z,5.50
2022-11-04T01:12:45.769Z,5.93
2022-11-04T01:15:12.560Z,6.03
2022-11-04T01:17:39.596Z,6.10
2022-11-04T01:20:07.275Z,6.45
2022-11-04T01:22:34.039Z,6.32
2022-11-04T01:25:01.385Z,7.40
2022-11-04T01:27:28.466Z,6.90
2022-11-04T01:29:55.638Z,6.05
2022-11-04T01:32:22.404Z,5.40
2022-11-04T01:34:49.520Z,4.70
2022-11-04T01:37:16.794Z,5.05
2022-11-04T01:39:44.177Z,4.63
2022-11-04T01:42:14.287Z,4.97
2022-11-04T01:44:56.276Z,4.60
2022-11-04T01:47:45.706Z,4.53
2022-11-04T01:50:19.613Z,4.22
2022-11-04T01:52:52.744Z,4.45
2022-11-04T01:55:22.766Z,3.90
2022-11-04T01:57:50.669Z,3.72
2022-11-04T02:00:18.735Z,4.18
2022-11-04T02:03:25.990Z,4.25
2022-11-04T02:05:53.121Z,4.50
2022-11-04T02:08:20.972Z,3.85
2022-11-04T02:10:54.150Z,3.85
2022-11-04T02:13:21.091Z,3.60
2022-11-04T02:16:26.022Z,3.30
2022-11-04T02:19:09.296Z,3.20
2022-11-04T02:22:09.916Z,3.15
2022-11-04T02:24:48.525Z,3.20
2022-11-04T02:27:31.436Z,3.03
2022-11-04T02:30:17.072Z,3.08
2022-11-04T02:33:09.652Z,3.03
2022-11-04T02:35:48.096Z,2.80
2022-11-04T02:38:34.626Z,3.20
2022-11-04T02:41:10.719Z,3.20
2022-11-04T02:44:13.570Z,3.35
2022-11-04T02:46:53.836Z,3.60
2022-11-04T02:49:34.234Z,3.10
2022-11-04T02:52:24.831Z,3.10
2022-11-04T02:54:57.325Z,2.90
2022-11-04T02:57:30.901Z,2.60
2022-11-04T03:00:06.085Z,2.72
2022-11-04T03:02:42.736Z,2.53
2022-11-04T03:05:14.814Z,2.05
2022-11-04T03:07:43.003Z,2.17
2022-11-04T03:10:18.071Z,2.47
2022-11-04T03:13:21.704Z,1.92
2022-11-04T03:16:14.082Z,1.80
2022-11-04T03:18:46.798Z,1.77
2022-11-04T03:21:14.588Z,1.63
2022-11-04T03:23:41.559Z,1.80
2022-11-04T03:26:42.283Z,2.10
2022-11-04T03:29:39.904Z,2.22
2022-11-04T03:32:26.725Z,2.10
2022-11-04T03:34:54.356Z,1.63
2022-11-04T03:37:22.372Z,1.80
2022-11-04T03:39:50.227Z,1.60
2022-11-04T03:42:22.709Z,1.50
2022-11-04T03:44:52.779Z,1.50
2022-11-04T03:47:22.308Z,1.33
2022-11-04T03:49:50.740Z,1.67
2022-11-04T03:52:18.624Z,1.42
2022-11-04T03:54:48.171Z,1.48
2022-11-04T03:57:56.641Z,1.42
2022-11-04T04:00:24.296Z,1.33
2022-11-04T04:03:15.160Z,1.33
2022-11-04T04:05:54.302Z,1.30
2022-11-04T04:08:41.733Z,1.20
2022-11-04T04:11:20.764Z,1.20
2022-11-04T04:13:57.319Z,1.20
2022-11-04T04:16:57.489Z,1.20
2022-11-04T04:19:26.229Z,1.30
2022-11-04T04:21:59.455Z,0.98
2022-11-04T04:24:49.762Z,1.00
2022-11-04T04:27:32.134Z,1.05
2022-11-04T04:30:08.142Z,1.27
2022-11-04T04:32:39.694Z,1.10
2022-11-04T04:35:27.038Z,1.00
2022-11-04T04:38:18.290Z,0.98
2022-11-04T04:41:19.580Z,0.88
2022-11-04T04:44:06.571Z,1.10
2022-11-04T04:46:36.390Z,0.93
2022-11-04T04:49:08.267Z,1.10
2022-11-04T04:51:40.158Z,1.20
2022-11-04T04:54:08.010Z,1.17
2022-11-04T04:56:36.371Z,1.13
2022-11-04T04:59:04.562Z,1.00
2022-11-04T05:01:31.585Z,1.10
2022-11-04T05:03:59.096Z,1.20
2022-11-04T05:06:27.865Z,1.00
2022-11-04T05:08:56.616Z,1.35
2022-11-04T05:11:24.544Z,0.93
2022-11-04T05:13:54.698Z,1.00
2022-11-04T05:16:22.247Z,0.93
2022-11-04T05:18:52.641Z,0.70
2022-11-04T05:21:19.703Z,0.80
2022-11-04T05:23:47.311Z,0.82
2022-11-04T05:26:16.670Z,1.00
2022-11-04T05:28:43.762Z,1.20
2022-11-04T05:31:11.031Z,0.90
2022-11-04T05:33:38.705Z,1.00
2022-11-04T05:36:09.722Z,0.98
2022-11-04T05:38:38.216Z,1.00
2022-11-04T05:41:07.151Z,1.00
2022-11-04T05:43:36.523Z,1.20
2022-11-04T05:46:04.388Z,1.42
2022-11-04T05:48:36.361Z,1.40
2022-11-04T05:51:08.169Z,1.40
2022-11-04T05:53:35.881Z,1.50
2022-11-04T05:56:03.492Z,1.38
2022-11-04T05:58:30.847Z,1.20
2022-11-04T06:01:29.054Z,1.10
2022-11-04T06:03:57.547Z,1.30
2022-11-04T06:06:25.967Z,1.08
2022-11-04T06:08:53.845Z,0.90
2022-11-04T06:11:24.260Z,1.00
2022-11-04T06:13:54.178Z,1.10
2022-11-04T06:16:22.653Z,1.20
2022-11-04T06:18:51.882Z,1.00
2022-11-04T06:21:26.598Z,1.10
2022-11-04T06:26:27.725Z,1.15
2022-11-04T06:28:55.297Z,1.35
2022-11-04T06:31:23.399Z,1.20
2022-11-04T06:33:50.764Z,1.88
2022-11-04T06:36:18.126Z,1.80
2022-11-04T06:38:45.907Z,1.98
2022-11-04T06:41:16.415Z,1.30
2022-11-04T06:43:45.178Z,1.33
2022-11-04T06:46:29.937Z,1.45
2022-11-04T06:51:26.023Z,1.70
2022-11-04T06:53:52.986Z,1.70
2022-11-04T06:56:21.576Z,1.50
2022-11-04T06:58:54.339Z,2.10
2022-11-04T07:01:24.604Z,1.77
2022-11-04T07:03:54.948Z,2.10
2022-11-04T07:06:24.468Z,2.30
2022-11-04T07:08:56.116Z,2.35
2022-11-04T07:11:26.386Z,2.50
2022-11-04T07:13:57.734Z,2.60
2022-11-04T07:16:27.581Z,2.78
2022-11-04T07:18:58.341Z,2.60
2022-11-04T07:21:28.553Z,1.92
2022-11-04T07:23:57.669Z,1.73
2022-11-04T07:26:25.830Z,1.70
2022-11-04T07:28:53.564Z,1.75
2022-11-04T07:31:23.005Z,1.98
2022-11-04T07:33:52.396Z,2.40
2022-11-04T07:36:19.890Z,1.90
2022-11-04T07:38:47.836Z,1.77
2022-11-04T07:41:16.208Z,1.30
2022-11-04T07:43:44.106Z,1.10
2022-11-04T07:46:13.092Z,1.38
2022-11-04T07:48:40.746Z,1.50
2022-11-04T07:51:12.108Z,1.35
2022-11-04T07:53:40.586Z,1.70
2022-11-04T07:56:13.938Z,3.35
2022-11-04T07:58:42.390Z,7.30
2022-11-04T08:01:13.847Z,4.60
2022-11-04T08:03:46.045Z,3.53
2022-11-04T08:06:15.547Z,4.35
2022-11-04T08:08:44.147Z,3.80
2022-11-04T08:11:25.414Z,3.20
2022-11-04T08:13:52.811Z,2.50
2022-11-04T08:16:22.276Z,2.10
2022-11-04T08:18:51.768Z,2.08
2022-11-04T08:21:20.788Z,1.90
2022-11-04T08:23:51.946Z,1.90
2022-11-04T08:26:21.577Z,1.42
2022-11-04T08:28:59.866Z,1.85
2022-11-04T08:31:29.873Z,1.85
2022-11-04T08:33:58.887Z,2.05
2022-11-04T08:36:31.761Z,2.00
2022-11-04T08:38:59.617Z,1.90
2022-11-04T08:41:29.449Z,2.05
2022-11-04T08:43:57.809Z,5.15
2022-11-04T08:46:26.187Z,4.32
2022-11-04T08:48:56.092Z,4.60
2022-11-04T08:51:27.139Z,3.22
2022-11-04T08:53:55.663Z,3.03
2022-11-04T08:56:26.995Z,1.45
2022-11-04T08:58:54.713Z,1.17
2022-11-04T09:01:22.804Z,1.48
2022-11-04T09:03:51.114Z,1.35
2022-11-04T09:06:27.968Z,0.70
2022-11-04T09:09:02.932Z,0.90
2022-11-04T09:11:34.049Z,0.90
2022-11-04T09:14:03.036Z,1.00
2022-11-04T09:16:31.571Z,0.80
2022-11-04T09:18:59.073Z,0.90
2022-11-04T09:21:27.160Z,0.90
2022-11-04T09:23:55.029Z,0.80
2022-11-04T09:26:24.093Z,0.98
2022-11-04T09:28:58.950Z,1.00
2022-11-04T09:31:28.568Z,1.05
2022-11-04T09:33:56.419Z,1.85
2022-11-04T09:36:24.902Z,1.38
2022-11-04T09:38:52.219Z,1.42
2022-11-04T09:41:31.527Z,1.50
2022-11-04T09:44:24.559Z,1.08
2022-11-04T09:46:53.626Z,1.00
2022-11-04T09:49:21.944Z,0.80
2022-11-04T09:51:55.438Z,0.90
2022-11-04T09:54:47.012Z,0.70
2022-11-04T09:57:18.415Z,0.98
2022-11-04T09:59:55.649Z,1.40
2022-11-04T10:03:05.125Z,2.08
2022-11-04T10:05:40.868Z,1.40
2022-11-04T10:08:40.797Z,1.20
2022-11-04T10:11:07.825Z,1.10
2022-11-04T10:14:21.615Z,1.00
2022-11-04T10:17:15.206Z,0.93
2022-11-04T10:19:57.490Z,0.70
2022-11-04T10:22:38.056Z,1.13
2022-11-04T10:25:15.949Z,0.98
2022-11-04T10:27:46.400Z,1.48
2022-11-04T10:30:24.387Z,0.82
2022-11-04T10:33:34.368Z,1.23
2022-11-04T10:36:05.258Z,1.02
2022-11-04T10:38:39.298Z,0.80
2022-11-04T10:41:37.606Z,1.25
2022-11-04T10:44:12.383Z,1.05
2022-11-04T10:47:15.871Z,1.10
2022-11-04T10:50:31.878Z,0.85
2022-11-04T10:53:20.410Z,3.00
2022-11-04T10:56:12.709Z,3.22
2022-11-04T10:58:46.151Z,2.42
2022-11-04T11:01:34.875Z,7.95
2022-11-04T11:04:08.405Z,6.18
2022-11-04T11:06:36.838Z,2.20
2022-11-04T11:09:15.915Z,1.40
2022-11-04T11:11:48.670Z,0.80
2022-11-04T11:14:37.958Z,0.82
2022-11-04T11:17:43.463Z,0.95
2022-11-04T11:20:21.853Z,0.90
2022-11-04T11:22:52.388Z,0.95
2022-11-04T11:25:34.198Z,1.13
2022-11-04T11:28:10.862Z,1.30
2022-11-04T11:31:08.800Z,1.20
2022-11-04T11:33:38.826Z,1.50
2022-11-04T11:36:15.495Z,1.02
2022-11-04T11:39:23.706Z,1.20
2022-11-04T11:42:21.134Z,1.40
2022-11-04T11:44:59.721Z,1.05
2022-11-04T11:47:42.214Z,1.10
2022-11-04T11:50:20.963Z,1.00
2022-11-04T11:52:49.435Z,0.93
2022-11-04T11:55:27.466Z,1.15
2022-11-04T12:01:47.269Z,0.80
2022-11-04T12:10:51.321Z,0.90
2022-11-04T12:13:30.075Z,2.28
2022-11-04T12:16:24.344Z,1.20
2022-11-04T12:19:10.270Z,1.30
2022-11-04T12:21:50.954Z,1.20
2022-11-04T12:24:28.364Z,1.05
2022-11-04T12:27:08.176Z,0.93
2022-11-04T12:30:00.810Z,1.20
2022-11-04T12:32:39.941Z,1.38
2022-11-04T12:36:05.347Z,1.38
2022-11-04T12:38:57.093Z,1.30
2022-11-04T12:42:19.685Z,1.05
2022-11-04T12:45:21.500Z,0.90
2022-11-04T12:47:50.773Z,1.50
2022-11-04T12:50:28.793Z,1.63
2022-11-04T12:53:46.811Z,1.50
2022-11-04T12:56:21.163Z,1.00
2022-11-04T12:59:10.247Z,1.20
2022-11-04T13:01:48.489Z,1.17
2022-11-04T13:04:38.612Z,1.35
2022-11-04T13:07:12.596Z,1.15
2022-11-04T13:09:54.489Z,1.05
2022-11-04T13:12:27.831Z,1.00
2022-11-04T13:15:00.789Z,1.10
2022-11-04T13:17:31.816Z,1.45
2022-11-04T13:20:07.345Z,1.52
2022-11-04T13:22:39.640Z,1.88
2022-11-04T13:25:15.982Z,1.98
2022-11-04T13:27:45.942Z,1.55
2022-11-04T13:30:23.475Z,1.50
2022-11-04T13:33:28.960Z,1.40
2022-11-04T13:36:07.818Z,1.20
2022-11-04T13:38:45.990Z,1.40
2022-11-04T13:41:32.471Z,1.30
2022-11-04T13:44:02.823Z,1.20
2022-11-04T13:46:33.000Z,1.45
2022-11-04T13:49:31.306Z,1.40
2022-11-04T13:52:13.838Z,1.42
2022-11-04T13:54:43.292Z,1.05
2022-11-04T13:57:17.139Z,1.00
2022-11-04T14:00:16.500Z,1.08
2022-11-04T14:02:45.484Z,1.20
2022-11-04T14:05:45.961Z,0.80
2022-11-04T14:08:17.203Z,0.70
2022-11-04T14:11:07.871Z,0.73
2022-11-04T14:13:46.352Z,0.80
2022-11-04T14:16:40.623Z,0.70
2022-11-04T14:19:47.841Z,1.10
2022-11-04T14:22:16.936Z,1.00
2022-11-04T14:24:45.214Z,0.57
2022-11-04T14:27:25.402Z,0.80
2022-11-04T14:29:53.650Z,0.75
2022-11-04T14:32:28.681Z,0.80
2022-11-04T14:35:05.595Z,0.85
2022-11-04T14:37:35.092Z,0.80
2022-11-04T14:40:05.979Z,1.40
2022-11-04T14:42:58.410Z,0.70
2022-11-04T14:45:29.302Z,1.27
2022-11-04T14:48:03.978Z,1.10
2022-11-04T14:50:32.624Z,15.70
2022-11-04T14:53:03.111Z,2.80
2022-11-04T14:55:32.164Z,1.75
2022-11-04T14:58:22.872Z,1.55
2022-11-04T15:00:50.507Z,1.70
2022-11-04T15:06:34.911Z,2.15
2022-11-04T15:09:23.784Z,3.45
2022-11-04T15:12:12.205Z,15.75
2022-11-04T15:14:40.495Z,4.15
2022-11-04T15:17:18.208Z,17.80
2022-11-04T15:19:49.761Z,4.88
2022-11-04T15:22:18.495Z,2.50
2022-11-04T15:24:46.140Z,2.35
2022-11-04T15:27:20.476Z,2.58
2022-11-04T15:30:07.347Z,7.82
2022-11-04T15:32:34.807Z,4.30
2022-11-04T15:35:04.216Z,4.07
2022-11-04T15:37:32.560Z,1.80
2022-11-04T15:40:00.360Z,1.45
2022-11-04T15:42:45.765Z,1.10
2022-11-04T15:45:47.970Z,1.13
2022-11-04T15:48:29.334Z,1.20
2022-11-04T15:51:35.909Z,1.08
2022-11-04T15:54:05.813Z,1.15
2022-11-04T15:56:50.382Z,0.85
2022-11-04T15:59:21.658Z,1.40
2022-11-04T16:01:50.939Z,1.10
2022-11-04T16:04:21.747Z,1.20
2022-11-04T16:07:21.173Z,0.90
2022-11-04T16:09:56.223Z,0.95
2022-11-04T16:12:36.566Z,1.10
2022-11-04T16:15:04.652Z,0.82
2022-11-04T16:17:32.647Z,0.93
2022-11-04T16:20:02.724Z,1.00
2022-11-04T16:22:37.875Z,1.30
2022-11-04T16:27:35.384Z,1.10
2022-11-04T16:30:24.652Z,1.10
2022-11-04T16:32:55.029Z,1.08
2022-11-04T16:35:27.467Z,0.90
2022-11-04T16:37:59.245Z,1.00
2022-11-04T16:40:27.226Z,3.03
2022-11-04T16:42:54.695Z,4.75
2022-11-04T16:45:31.501Z,3.85
2022-11-04T16:48:01.406Z,3.63
2022-11-04T16:50:29.780Z,4.10
2022-11-04T16:52:57.697Z,2.88
2022-11-04T16:55:26.045Z,1.80
2022-11-04T16:58:00.034Z,1.48
2022-11-04T17:00:30.263Z,1.70
2022-11-04T17:02:58.041Z,2.28
2022-11-04T17:05:25.786Z,2.75
2022-11-04T17:07:57.516Z,2.40
2022-11-04T17:10:29.286Z,2.33
2022-11-04T17:12:56.685Z,3.88
2022-11-04T17:15:24.549Z,4.22
2022-11-04T17:17:51.802Z,3.10
2022-11-04T17:20:21.249Z,3.50
2022-11-04T17:22:49.374Z,3.40
2022-11-04T17:25:23.501Z,3.40
2022-11-04T17:27:51.758Z,5.68
2022-11-04T17:30:19.731Z,6.97
2022-11-04T17:32:49.108Z,3.92
2022-11-04T17:35:17.786Z,3.03
2022-11-04T17:37:46.305Z,3.42
2022-11-04T17:40:18.727Z,5.78
2022-11-04T17:43:10.419Z,16.70
2022-11-04T17:45:46.244Z,31.20
2022-11-04T17:48:15.821Z,25.75
2022-11-04T17:50:43.819Z,27.52
2022-11-04T17:53:12.504Z,24.70
2022-11-04T17:55:41.471Z,22.52
2022-11-04T17:58:09.515Z,22.17
2022-11-04T18:00:37.969Z,28.38
2022-11-04T18:03:07.251Z,26.27
2022-11-04T18:05:35.899Z,24.33
2022-11-04T18:08:03.673Z,23.40
2022-11-04T18:10:31.123Z,22.38
2022-11-04T18:13:00.124Z,22.35
2022-11-04T18:15:27.744Z,21.90
2022-11-04T18:17:56.392Z,17.80
2022-11-04T18:20:23.991Z,9.10
2022-11-04T18:22:52.439Z,6.30
2022-11-04T18:25:19.650Z,4.25
2022-11-04T18:27:49.366Z,4.45
2022-11-04T18:30:16.700Z,4.43
2022-11-04T18:32:45.867Z,4.32
2022-11-04T18:35:13.645Z,5.72
2022-11-04T18:37:47.082Z,7.03
2022-11-04T18:40:16.817Z,7.20
2022-11-04T18:42:45.860Z,7.60
2022-11-04T18:45:15.014Z,7.50
2022-11-04T18:47:42.604Z,8.35
2022-11-04T18:50:11.380Z,7.90
2022-11-04T18:52:51.890Z,8.13
2022-11-04T18:55:20.249Z,8.70
2022-11-04T18:57:48.449Z,9.48
2022-11-04T19:00:17.427Z,9.90
2022-11-04T19:02:46.418Z,8.50
2022-11-04T19:05:16.339Z,6.05
2022-11-04T19:07:46.300Z,4.60
2022-11-04T19:10:17.146Z,4.75
2022-11-04T19:13:07.681Z,3.20
2022-11-04T19:15:37.168Z,2.10
2022-11-04T19:18:06.221Z,2.05
2022-11-04T19:20:34.420Z,2.00
2022-11-04T19:23:07.438Z,1.95
2022-11-04T19:25:41.953Z,1.90
2022-11-04T19:28:34.509Z,1.83
2022-11-04T19:31:02.835Z,2.10
2022-11-04T19:33:43.130Z,2.35
2022-11-04T19:36:16.103Z,3.75
2022-11-04T19:38:44.344Z,4.32
2022-11-04T19:41:34.390Z,4.63
2022-11-04T19:44:08.457Z,4.30
2022-11-04T19:46:37.077Z,11.15
2022-11-04T19:49:07.550Z,8.15
2022-11-04T19:51:36.200Z,7.43
2022-11-04T19:54:04.933Z,6.82
2022-11-04T19:56:35.098Z,6.38
2022-11-04T19:59:06.393Z,6.00
2022-11-04T20:01:35.792Z,5.63
2022-11-04T20:04:04.912Z,5.85
2022-11-04T20:06:36.398Z,5.60
2022-11-04T20:09:07.072Z,5.15
2022-11-04T20:11:35.561Z,4.75
2022-11-04T20:14:08.014Z,4.72
2022-11-04T20:16:39.827Z,4.20
2022-11-04T20:19:08.190Z,4.03
2022-11-04T20:21:37.891Z,4.38
2022-11-04T20:24:08.908Z,3.90
2022-11-04T20:26:54.188Z,3.70
2022-11-04T20:29:24.958Z,3.88
2022-11-04T20:31:53.117Z,3.75
2022-11-04T20:34:20.656Z,4.43
2022-11-04T20:36:49.889Z,5.32
2022-11-04T20:39:20.675Z,5.57
2022-11-04T20:41:48.967Z,5.15
2022-11-04T20:44:20.381Z,4.60
2022-11-04T20:46:55.767Z,4.43
2022-11-04T20:49:24.087Z,4.20
2022-11-04T20:51:55.449Z,4.30
2022-11-04T20:54:23.746Z,4.80
2022-11-04T20:56:53.103Z,4.93
2022-11-04T20:59:22.128Z,4.90
2022-11-04T21:02:11.584Z,5.03
2022-11-04T21:04:40.369Z,5.47
2022-11-04T21:07:10.492Z,4.90
2022-11-04T21:09:39.423Z,4.75
2022-11-04T21:12:09.299Z,5.25
2022-11-04T21:14:41.345Z,6.20
2022-11-04T21:17:11.048Z,5.50
2022-11-04T21:19:44.797Z,6.82
2022-11-04T21:22:14.481Z,6.78
2022-11-04T21:24:45.280Z,6.50
2022-11-04T21:27:14.835Z,6.38
2022-11-04T21:29:48.237Z,7.63
2022-11-04T21:32:20.241Z,7.97
2022-11-04T21:34:52.554Z,8.20
2022-11-04T21:37:20.799Z,8.20
2022-11-04T21:39:47.857Z,8.73
2022-11-04T21:42:18.809Z,7.85
2022-11-04T21:44:51.883Z,8.57
2022-11-04T21:47:23.295Z,6.43
2022-11-04T21:49:53.218Z,6.38
2022-11-04T21:52:22.795Z,6.90
2022-11-04T21:54:52.448Z,6.93
2022-11-04T21:57:20.611Z,6.95
2022-11-04T21:59:52.605Z,6.65
2022-11-04T22:02:23.600Z,7.05
2022-11-04T22:04:56.484Z,6.55
2022-11-04T22:07:45.410Z,6.60
2022-11-04T22:10:14.489Z,7.00
2022-11-04T22:12:50.075Z,6.90
2022-11-04T22:15:46.411Z,6.95
2022-11-04T22:18:22.535Z,6.80
2022-11-04T22:20:51.757Z,6.80
2022-11-04T22:23:20.380Z,6.45
2022-11-04T22:25:50.245Z,5.88
2022-11-04T22:28:24.563Z,6.22
2022-11-04T22:33:21.743Z,6.07
2022-11-04T22:35:53.042Z,6.60
2022-11-04T22:38:25.294Z,7.20
2022-11-04T22:40:56.947Z,6.90
2022-11-04T22:43:26.865Z,6.65
2022-11-04T22:45:55.854Z,6.75
2022-11-04T22:48:26.449Z,6.60
2022-11-04T22:50:58.265Z,6.95
2022-11-04T22:53:29.560Z,7.18
2022-11-04T22:56:00.765Z,6.63
2022-11-04T22:58:28.393Z,6.30
2022-11-04T23:00:59.102Z,6.95
2022-11-04T23:03:29.722Z,6.70
2022-11-04T23:05:59.362Z,6.45
2022-11-04T23:08:32.094Z,7.45
2022-11-04T23:11:22.594Z,7.38
2022-11-04T23:14:20.057Z,10.55
2022-11-04T23:17:10.394Z,14.48
2022-11-04T23:19:39.739Z,11.93
2022-11-04T23:22:27.634Z,11.90
2022-11-04T23:25:10.162Z,11.45
2022-11-04T23:28:04.498Z,10.93
2022-11-04T23:30:39.814Z,10.63
2022-11-04T23:33:25.770Z,9.90
2022-11-04T23:36:17.174Z,9.25
2022-11-04T23:38:50.160Z,9.30
2022-11-04T23:41:38.745Z,8.65
2022-11-04T23:44:27.457Z,8.65
2022-11-04T23:47:14.672Z,8.70
2022-11-04T23:50:02.737Z,8.90
2022-11-04T23:52:49.629Z,8.95
2022-11-04T23:55:35.521Z,8.05
2022-11-04T23:58:21.625Z,8.68
